Time;durP1;ratioP1;P1;durP2;ratioP2;P2;SDS_P1;SDS_P2;PMS_P1;PMS_P2;Temp;Humidity;BMP_temperature;BMP_pressure;BME280_temperature;BME280_humidity;BME280_pressure;Samples;Min_cycle;Max_cycle;Signal;HPM_P1;HPM_P2
2023/06/22 00:00:49;;;;;;;25.63;23.17;;;17.80;99.90;;;;;;5044878;28;20918;-76
2023/06/22 00:03:15;;;;;;;30.30;27.40;;;17.60;99.90;;;;;;4976033;28;20527;-76
2023/06/22 00:05:41;;;;;;;28.13;25.23;;;17.50;99.90;;;;;;5012790;28;20478;-76
2023/06/22 00:08:07;;;;;;;29.63;26.77;;;17.50;99.90;;;;;;4970427;28;20489;-79
2023/06/22 00:10:33;;;;;;;29.07;26.30;;;17.60;99.90;;;;;;5041647;28;20853;-76
2023/06/22 00:12:58;;;;;;;29.38;26.50;;;17.50;99.90;;;;;;4946311;28;20502;-78
2023/06/22 00:15:24;;;;;;;28.88;25.90;;;17.70;99.90;;;;;;4941556;28;20430;-77
2023/06/22 00:17:50;;;;;;;32.03;28.90;;;17.80;99.90;;;;;;4955101;28;20429;-77
2023/06/22 00:20:17;;;;;;;32.78;29.58;;;17.80;99.90;;;;;;4938505;28;20504;-78
2023/06/22 00:22:44;;;;;;;31.77;28.60;;;17.90;99.90;;;;;;4952778;28;20588;-77
2023/06/22 00:25:10;;;;;;;32.67;29.48;;;17.70;99.90;;;;;;5010314;28;20911;-78
2023/06/22 00:27:36;;;;;;;32.65;29.50;;;17.80;99.90;;;;;;5024759;28;20468;-77
2023/06/22 00:30:03;;;;;;;30.27;27.33;;;17.70;99.90;;;;;;5008823;28;20465;-77
2023/06/22 00:32:28;;;;;;;29.40;26.55;;;17.90;99.90;;;;;;4969526;28;20808;-76
2023/06/22 00:34:54;;;;;;;31.85;28.65;;;17.90;99.90;;;;;;5014530;28;20433;-78
2023/06/22 00:37:25;;;;;;;31.63;28.63;;;17.90;99.90;;;;;;5011484;28;20430;-77
2023/06/22 00:39:51;;;;;;;28.20;25.50;;;17.90;99.90;;;;;;4949626;29;20440;-78
2023/06/22 00:42:17;;;;;;;31.63;28.23;;;17.90;99.90;;;;;;4948868;28;20445;-79
2023/06/22 00:44:44;;;;;;;28.75;25.95;;;17.80;99.90;;;;;;4994691;28;20465;-78
2023/06/22 00:47:13;;;;;;;26.83;24.15;;;17.70;99.90;;;;;;4931743;29;20445;-77
2023/06/22 00:49:39;;;;;;;28.98;26.10;;;17.80;99.90;;;;;;5028435;28;20436;-77
2023/06/22 00:52:13;;;;;;;28.83;25.83;;;17.70;99.90;;;;;;4998231;28;20442;-77
2023/06/22 00:54:45;;;;;;;28.65;25.65;;;17.80;99.90;;;;;;4998381;28;20520;-77
2023/06/22 00:57:15;;;;;;;29.33;26.27;;;17.70;99.90;;;;;;4997120;28;20424;-78
2023/06/22 00:59:48;;;;;;;28.27;25.33;;;17.60;99.90;;;;;;4968611;28;20426;-78
2023/06/22 01:02:14;;;;;;;28.58;25.85;;;17.70;99.90;;;;;;4986778;28;20456;-79
2023/06/22 01:04:40;;;;;;;24.55;21.95;;;17.70;99.90;;;;;;4954524;28;20500;-78
2023/06/22 01:07:15;;;;;;;22.33;20.25;;;17.70;99.90;;;;;;4989198;28;20840;-77
2023/06/22 01:09:59;;;;;;;21.23;19.13;;;17.70;99.90;;;;;;4960519;28;20425;-79
2023/06/22 01:12:29;;;;;;;20.13;18.13;;;17.70;99.90;;;;;;4991285;28;20503;-78
2023/06/22 01:15:04;;;;;;;20.85;18.77;;;17.70;99.90;;;;;;4948360;28;20558;-79
2023/06/22 01:17:31;;;;;;;20.00;17.98;;;17.60;99.90;;;;;;4986960;28;20424;-77
2023/06/22 01:20:00;;;;;;;21.23;19.25;;;17.60;99.90;;;;;;4982965;28;20831;-79
2023/06/22 01:22:30;;;;;;;20.90;18.90;;;17.50;99.90;;;;;;4975691;28;20828;-77
2023/06/22 01:25:19;;;;;;;19.95;18.10;;;17.50;99.90;;;;;;5039857;28;21138;-77
2023/06/22 01:28:14;;;;;;;22.02;20.08;;;17.50;99.90;;;;;;4993255;28;20453;-77
2023/06/22 01:30:42;;;;;;;19.73;17.83;;;17.30;99.90;;;;;;5017304;28;20465;-79
2023/06/22 01:33:11;;;;;;;21.00;19.00;;;17.20;99.90;;;;;;4985661;28;20506;-79
2023/06/22 01:35:38;;;;;;;22.40;20.55;;;17.30;99.90;;;;;;4962971;28;20447;-77
2023/06/22 01:38:04;;;;;;;23.27;21.15;;;17.30;99.90;;;;;;4995207;28;20737;-78
2023/06/22 01:40:31;;;;;;;20.75;18.77;;;17.10;99.90;;;;;;5023054;28;20428;-78
2023/06/22 01:42:57;;;;;;;21.37;19.37;;;16.80;99.90;;;;;;4983861;28;20475;-79
2023/06/22 01:45:24;;;;;;;17.05;15.50;;;16.70;99.90;;;;;;4997332;28;20430;-77
2023/06/22 01:47:50;;;;;;;20.92;18.92;;;16.50;99.90;;;;;;5008481;28;20425;-77
2023/06/22 01:50:16;;;;;;;21.40;19.50;;;16.80;99.90;;;;;;5047530;28;21045;-78
2023/06/22 01:52:42;;;;;;;30.50;25.58;;;16.80;99.90;;;;;;5009796;28;20497;-76
2023/06/22 01:55:08;;;;;;;26.77;23.60;;;16.70;99.90;;;;;;4971327;28;20522;-78
2023/06/22 01:57:34;;;;;;;42.67;27.10;;;16.80;99.90;;;;;;4958732;28;20433;-78
2023/06/22 02:00:06;;;;;;;132.48;24.05;;;16.80;99.90;;;;;;5020697;28;20918;-76
2023/06/22 02:02:39;;;;;;;179.68;27.67;;;16.90;99.90;;;;;;4948447;28;20442;-76
2023/06/22 02:05:12;;;;;;;250.77;32.00;;;16.90;99.90;;;;;;5045348;28;20436;-78
2023/06/22 02:07:46;;;;;;;141.85;24.52;;;16.90;99.90;;;;;;4979967;28;20505;-77
2023/06/22 02:10:15;;;;;;;123.25;26.38;;;16.90;99.90;;;;;;4954864;28;20442;-77
2023/06/22 02:12:43;;;;;;;133.55;28.02;;;16.90;99.90;;;;;;4935688;28;20506;-77
2023/06/22 02:15:12;;;;;;;54.78;22.98;;;16.80;99.90;;;;;;4954017;28;20443;-76
2023/06/22 02:17:38;;;;;;;44.88;22.95;;;16.80;99.90;;;;;;4948980;28;20437;-76
2023/06/22 02:20:07;;;;;;;32.95;24.83;;;16.40;99.90;;;;;;4985367;28;20491;-78
2023/06/22 02:22:33;;;;;;;25.63;23.30;;;16.20;99.90;;;;;;4991042;28;20429;-77
2023/06/22 02:24:58;;;;;;;33.97;23.38;;;16.40;99.90;;;;;;4990516;28;20428;-76
2023/06/22 02:27:24;;;;;;;31.43;23.50;;;16.50;99.90;;;;;;4953502;28;20942;-77
2023/06/22 02:29:50;;;;;;;49.00;30.27;;;16.70;99.90;;;;;;4996857;28;20500;-76
2023/06/22 02:32:17;;;;;;;33.35;28.10;;;16.70;99.90;;;;;;5020723;28;20431;-77
2023/06/22 02:34:47;;;;;;;43.77;28.07;;;16.50;99.90;;;;;;5013653;28;20531;-74
2023/06/22 02:37:16;;;;;;;75.85;27.27;;;16.60;99.90;;;;;;4963100;28;20429;-77
2023/06/22 02:39:41;;;;;;;45.35;29.27;;;16.50;99.90;;;;;;4983989;28;20429;-77
2023/06/22 02:42:07;;;;;;;36.92;26.95;;;16.30;99.90;;;;;;4971733;28;20433;-79
2023/06/22 02:44:33;;;;;;;46.97;27.77;;;16.20;99.90;;;;;;5029727;28;20440;-78
2023/06/22 02:46:59;;;;;;;26.48;24.15;;;16.10;99.90;;;;;;5043124;28;20482;-77
2023/06/22 02:49:24;;;;;;;29.77;27.03;;;16.20;99.90;;;;;;4989950;28;20455;-77
2023/06/22 02:51:50;;;;;;;27.63;25.17;;;16.10;99.90;;;;;;4950901;28;20480;-78
2023/06/22 02:54:16;;;;;;;27.57;25.20;;;16.30;99.90;;;;;;4982960;28;20433;-77
2023/06/22 02:56:45;;;;;;;30.90;28.05;;;16.20;99.90;;;;;;4943933;28;20437;-77
2023/06/22 02:59:11;;;;;;;27.63;25.25;;;16.10;99.90;;;;;;5013339;28;20429;-77
2023/06/22 03:01:39;;;;;;;28.37;26.00;;;16.30;99.90;;;;;;5003106;28;20525;-77
2023/06/22 03:04:06;;;;;;;25.13;23.02;;;16.30;99.90;;;;;;5002972;28;20497;-78
2023/06/22 03:06:32;;;;;;;26.20;23.98;;;16.40;99.90;;;;;;4985482;28;20450;-79
2023/06/22 03:09:03;;;;;;;24.63;22.50;;;16.30;99.90;;;;;;5034331;28;20508;-78
2023/06/22 03:11:30;;;;;;;23.80;21.88;;;16.10;99.90;;;;;;5039633;28;20457;-78
2023/06/22 03:13:56;;;;;;;26.40;24.10;;;16.10;99.90;;;;;;4975284;28;20800;-79
2023/06/22 03:16:22;;;;;;;23.67;21.67;;;16.00;99.90;;;;;;4954816;28;20434;-76
2023/06/22 03:18:47;;;;;;;21.65;19.95;;;16.10;99.90;;;;;;4965203;28;20422;-78
2023/06/22 03:21:15;;;;;;;21.73;19.92;;;16.10;99.90;;;;;;5047375;28;20448;-77
2023/06/22 03:23:41;;;;;;;19.85;18.35;;;16.20;99.90;;;;;;5011046;28;20521;-76
2023/06/22 03:26:08;;;;;;;19.37;17.90;;;16.00;99.90;;;;;;5032999;28;20528;-77
2023/06/22 03:28:34;;;;;;;19.00;17.60;;;15.90;99.90;;;;;;4989307;28;20887;-77
2023/06/22 03:30:59;;;;;;;19.25;17.75;;;15.80;99.90;;;;;;4950316;28;20440;-76
2023/06/22 03:33:25;;;;;;;16.97;15.77;;;15.70;99.90;;;;;;5004258;28;20488;-77
2023/06/22 03:35:51;;;;;;;18.67;17.17;;;15.90;99.90;;;;;;5018969;28;20426;-78
2023/06/22 03:38:17;;;;;;;19.35;17.85;;;15.80;99.90;;;;;;4967269;28;20430;-78
2023/06/22 03:40:43;;;;;;;19.02;17.63;;;15.80;99.90;;;;;;4965211;28;20491;-78
2023/06/22 03:43:09;;;;;;;19.33;17.92;;;15.80;99.90;;;;;;4949663;28;20478;-78
2023/06/22 03:45:35;;;;;;;19.70;18.20;;;15.60;99.90;;;;;;4964499;28;20990;-79
2023/06/22 03:48:00;;;;;;;20.27;18.83;;;15.60;99.90;;;;;;4950788;28;20593;-79
2023/06/22 03:50:27;;;;;;;18.88;17.48;;;15.70;99.90;;;;;;5033942;28;20432;-78
2023/06/22 03:52:52;;;;;;;18.35;16.90;;;15.90;99.90;;;;;;4964507;28;20446;-77
2023/06/22 03:55:20;;;;;;;19.20;17.70;;;15.80;99.90;;;;;;5007110;28;20433;-78
2023/06/22 03:57:45;;;;;;;18.10;16.80;;;15.90;99.90;;;;;;5049507;28;20458;-77
2023/06/22 04:00:12;;;;;;;18.27;16.90;;;16.00;99.90;;;;;;5028267;28;20504;-78
2023/06/22 04:02:38;;;;;;;18.37;17.00;;;16.00;99.90;;;;;;4962087;28;20438;-78
2023/06/22 04:05:04;;;;;;;19.53;17.83;;;15.90;99.90;;;;;;5013512;28;20429;-78
2023/06/22 04:07:30;;;;;;;19.55;17.85;;;15.90;99.90;;;;;;4961731;28;20432;-76
2023/06/22 04:09:56;;;;;;;19.77;17.98;;;15.70;99.90;;;;;;4979538;28;20418;-78
2023/06/22 04:12:22;;;;;;;20.05;18.45;;;15.80;99.90;;;;;;5048445;28;20405;-77
2023/06/22 04:14:48;;;;;;;20.73;18.92;;;15.80;99.90;;;;;;4947785;28;20444;-77
2023/06/22 04:17:17;;;;;;;21.70;19.70;;;15.90;99.90;;;;;;4923655;29;20444;-77
2023/06/22 04:19:43;;;;;;;22.48;19.45;;;15.90;99.90;;;;;;4990956;28;20409;-78
2023/06/22 04:22:10;;;;;;;23.60;19.70;;;15.90;99.90;;;;;;4992149;28;20950;-77
2023/06/22 04:24:35;;;;;;;44.13;21.60;;;15.70;99.90;;;;;;5036354;28;20511;-79
2023/06/22 04:27:02;;;;;;;149.30;25.77;;;15.80;99.90;;;;;;4996179;28;20465;-76
2023/06/22 04:29:29;;;;;;;109.70;24.67;;;15.70;99.90;;;;;;4931929;28;20444;-77
2023/06/22 04:31:58;;;;;;;88.97;24.73;;;15.70;99.90;;;;;;4944811;28;20438;-77
2023/06/22 04:34:26;;;;;;;70.53;23.67;;;15.60;99.90;;;;;;5046932;28;21003;-78
2023/06/22 04:36:55;;;;;;;86.00;26.10;;;15.80;99.90;;;;;;4957122;28;20422;-77
2023/06/22 04:39:21;;;;;;;117.30;25.15;;;15.70;99.90;;;;;;5023630;28;20421;-77
2023/06/22 04:41:47;;;;;;;54.10;23.55;;;15.60;99.90;;;;;;4977255;28;20533;-79
2023/06/22 04:44:24;;;;;;;52.08;25.77;;;15.60;99.90;;;;;;4942526;28;20435;-79
2023/06/22 04:47:03;;;;;;;36.38;24.65;;;15.90;99.90;;;;;;4971956;28;20425;-78
2023/06/22 04:49:33;;;;;;;62.72;27.70;;;15.90;99.90;;;;;;5009509;28;20432;-79
2023/06/22 04:52:07;;;;;;;33.65;24.63;;;16.00;99.90;;;;;;4966268;28;20426;-78
2023/06/22 04:54:34;;;;;;;63.35;30.63;;;16.00;99.90;;;;;;4939262;28;20433;-79
2023/06/22 04:57:04;;;;;;;30.52;27.00;;;16.20;99.90;;;;;;4993488;28;20429;-80
2023/06/22 04:59:31;;;;;;;30.23;25.38;;;16.10;99.90;;;;;;4950940;28;20473;-78
2023/06/22 05:02:03;;;;;;;30.48;27.55;;;16.30;99.90;;;;;;5001376;28;20446;-78
2023/06/22 05:04:32;;;;;;;28.50;25.73;;;16.60;99.90;;;;;;4993931;28;20473;-79
2023/06/22 05:07:00;;;;;;;29.70;26.70;;;16.50;99.90;;;;;;5003029;28;20433;-78
2023/06/22 05:09:26;;;;;;;32.08;28.98;;;16.40;99.90;;;;;;4979088;28;20519;-78
2023/06/22 05:11:51;;;;;;;35.47;31.60;;;16.50;99.90;;;;;;4975424;28;21290;-79
2023/06/22 05:14:17;;;;;;;38.63;31.02;;;16.60;99.90;;;;;;4988732;28;20972;-77
2023/06/22 05:16:44;;;;;;;33.20;29.90;;;16.60;99.90;;;;;;5022412;28;20779;-78
2023/06/22 05:19:10;;;;;;;32.43;29.23;;;16.40;99.90;;;;;;4967684;28;20485;-77
2023/06/22 05:21:36;;;;;;;31.05;28.20;;;16.60;99.90;;;;;;5039554;28;20491;-78
2023/06/22 05:24:02;;;;;;;33.03;29.60;;;16.60;99.90;;;;;;5035583;28;20478;-78
2023/06/22 05:26:30;;;;;;;32.90;29.35;;;16.70;99.90;;;;;;4995591;28;20795;-78
2023/06/22 05:28:56;;;;;;;33.22;29.45;;;16.50;99.90;;;;;;4941071;28;20531;-78
2023/06/22 05:31:22;;;;;;;35.05;31.45;;;16.50;99.90;;;;;;4974390;28;20480;-78
2023/06/22 05:33:49;;;;;;;43.65;34.88;;;16.80;99.90;;;;;;4988139;28;20471;-78
2023/06/22 05:36:15;;;;;;;33.67;30.38;;;16.80;99.90;;;;;;5004818;28;20458;-78
2023/06/22 05:38:42;;;;;;;36.83;32.88;;;16.80;99.90;;;;;;4987269;28;20429;-78
2023/06/22 05:41:08;;;;;;;33.03;29.98;;;17.00;99.90;;;;;;4967551;28;20969;-79
2023/06/22 05:43:34;;;;;;;33.10;30.10;;;17.20;99.90;;;;;;5007268;28;20840;-78
2023/06/22 05:46:03;;;;;;;35.47;32.05;;;17.20;99.90;;;;;;4988638;28;20449;-78
2023/06/22 05:48:29;;;;;;;33.05;29.85;;;17.10;99.90;;;;;;5047757;28;20436;-78
2023/06/22 05:50:55;;;;;;;36.30;32.80;;;17.30;99.90;;;;;;5049881;28;20790;-76
2023/06/22 05:53:21;;;;;;;36.50;33.10;;;17.20;99.90;;;;;;5050525;28;20432;-79
2023/06/22 05:55:46;;;;;;;38.63;34.85;;;17.30;99.90;;;;;;5033326;28;20421;-79
2023/06/22 05:58:13;;;;;;;37.70;34.20;;;17.30;99.90;;;;;;5027969;28;20458;-78
2023/06/22 06:00:39;;;;;;;39.30;35.30;;;17.40;99.90;;;;;;4944898;29;20423;-78
2023/06/22 06:03:09;;;;;;;38.67;34.72;;;17.40;99.90;;;;;;4971676;28;20480;-78
2023/06/22 06:05:36;;;;;;;38.60;34.97;;;17.50;99.90;;;;;;4938394;29;20416;-77
2023/06/22 06:08:04;;;;;;;37.50;33.80;;;17.80;99.90;;;;;;5024777;28;20429;-78
2023/06/22 06:10:33;;;;;;;39.38;35.67;;;17.80;99.90;;;;;;5003548;28;20428;-77
2023/06/22 06:13:02;;;;;;;39.22;35.38;;;17.90;99.90;;;;;;4960246;28;20432;-78
2023/06/22 06:15:28;;;;;;;41.07;36.83;;;18.10;99.90;;;;;;4998986;28;20493;-78
2023/06/22 06:17:54;;;;;;;38.90;35.28;;;18.20;99.90;;;;;;4957804;28;20510;-77
2023/06/22 06:20:23;;;;;;;40.80;36.75;;;18.10;99.90;;;;;;4983907;28;20414;-77
2023/06/22 06:22:49;;;;;;;40.42;36.20;;;18.20;99.90;;;;;;4975155;28;21047;-78
2023/06/22 06:25:16;;;;;;;38.97;35.20;;;18.30;99.90;;;;;;4962170;28;20445;-77
2023/06/22 06:27:48;;;;;;;36.28;32.70;;;18.30;99.90;;;;;;4964998;28;20861;-78
2023/06/22 06:30:15;;;;;;;38.35;34.75;;;18.60;99.90;;;;;;4951824;28;20918;-78
2023/06/22 06:32:42;;;;;;;39.22;35.22;;;18.70;99.90;;;;;;5009199;28;20808;-76
2023/06/22 06:35:09;;;;;;;38.65;34.92;;;18.70;99.90;;;;;;4988395;28;20430;-78
2023/06/22 06:37:40;;;;;;;37.88;33.88;;;18.90;99.90;;;;;;4990319;28;20566;-78
2023/06/22 06:40:12;;;;;;;37.13;33.42;;;18.90;99.90;;;;;;4974692;28;20756;-77
2023/06/22 06:42:48;;;;;;;37.05;33.53;;;18.90;99.90;;;;;;4994702;28;20434;-78
2023/06/22 06:45:17;;;;;;;36.90;33.38;;;19.10;99.90;;;;;;5037958;28;20417;-79
2023/06/22 06:47:43;;;;;;;37.08;33.50;;;19.30;99.90;;;;;;5034005;28;20436;-76
2023/06/22 06:50:09;;;;;;;35.88;32.33;;;19.20;99.90;;;;;;4991965;28;20430;-78
2023/06/22 06:52:35;;;;;;;36.15;32.65;;;19.20;99.90;;;;;;4971090;28;20551;-75
2023/06/22 06:55:01;;;;;;;35.50;31.75;;;19.50;99.90;;;;;;4937143;28;20505;-79
2023/06/22 06:57:28;;;;;;;35.35;31.95;;;19.60;99.90;;;;;;4974289;28;20476;-79
2023/06/22 06:59:57;;;;;;;34.25;30.98;;;19.70;99.90;;;;;;5017627;28;20436;-79
2023/06/22 07:02:23;;;;;;;35.63;32.22;;;19.70;99.90;;;;;;5048605;28;20436;-79
2023/06/22 07:04:49;;;;;;;34.85;31.48;;;20.30;99.90;;;;;;5052994;28;20488;-78
2023/06/22 07:07:15;;;;;;;32.65;29.55;;;20.50;99.90;;;;;;5012087;28;20601;-77
2023/06/22 07:09:41;;;;;;;31.73;28.67;;;20.80;99.90;;;;;;4951759;28;20424;-77
2023/06/22 07:12:07;;;;;;;31.90;29.00;;;21.20;99.90;;;;;;5020311;28;20908;-78
2023/06/22 07:14:33;;;;;;;30.33;27.40;;;21.30;99.90;;;;;;4950119;28;21099;-78
2023/06/22 07:16:59;;;;;;;29.05;26.15;;;21.10;99.90;;;;;;4968748;28;20433;-77
2023/06/22 07:19:26;;;;;;;24.23;21.70;;;21.40;99.90;;;;;;5046388;28;20451;-76
2023/06/22 07:21:55;;;;;;;24.25;22.08;;;21.70;99.90;;;;;;5013471;28;20446;-78
2023/06/22 07:24:21;;;;;;;23.70;21.30;;;21.80;99.90;;;;;;4950581;29;20466;-78
2023/06/22 07:26:49;;;;;;;22.02;20.02;;;21.90;99.90;;;;;;4951721;28;20509;-78
2023/06/22 07:29:20;;;;;;;22.83;20.65;;;22.40;99.90;;;;;;4950571;29;20426;-79
2023/06/22 07:31:47;;;;;;;22.92;20.83;;;22.50;99.90;;;;;;4952776;28;20433;-79
2023/06/22 07:34:13;;;;;;;21.07;18.97;;;22.80;99.90;;;;;;5033943;28;20417;-78
2023/06/22 07:36:39;;;;;;;21.35;19.35;;;22.90;99.90;;;;;;5051494;28;20509;-78
2023/06/22 07:39:05;;;;;;;20.90;18.90;;;23.20;99.90;;;;;;4953070;28;20505;-77
2023/06/22 07:41:31;;;;;;;21.08;19.08;;;22.90;99.90;;;;;;4950479;29;20526;-84
2023/06/22 07:43:57;;;;;;;20.27;18.23;;;23.30;99.90;;;;;;4937551;28;20434;-77
2023/06/22 07:46:23;;;;;;;20.40;18.50;;;23.30;99.90;;;;;;4947740;28;20437;-80
2023/06/22 07:48:49;;;;;;;20.25;18.23;;;23.90;99.90;;;;;;4936420;28;20461;-77
2023/06/22 07:51:14;;;;;;;18.73;16.98;;;23.40;99.90;;;;;;4933944;29;20422;-80
2023/06/22 07:53:41;;;;;;;18.30;16.50;;;22.80;99.90;;;;;;4953078;28;20527;-79
2023/06/22 07:56:09;;;;;;;18.25;14.02;;;22.10;99.90;;;;;;5046133;28;20118;-80
2023/06/22 07:58:35;;;;;;;15.43;13.93;;;22.00;99.90;;;;;;5005337;28;20039;-73
2023/06/22 08:01:01;;;;;;;20.55;14.73;;;21.80;99.90;;;;;;4947623;28;20042;-76
2023/06/22 08:03:26;;;;;;;16.38;14.77;;;22.00;99.90;;;;;;5000475;28;20073;-82
2023/06/22 08:05:52;;;;;;;18.95;12.63;;;21.90;99.90;;;;;;5029645;28;20025;-82
2023/06/22 08:08:18;;;;;;;11.82;10.55;;;21.90;99.90;;;;;;5004089;28;20130;-77
2023/06/22 08:10:43;;;;;;;11.00;9.82;;;22.10;99.90;;;;;;4959316;28;20050;-81
2023/06/22 08:13:10;;;;;;;13.27;11.57;;;22.20;99.90;;;;;;4954543;29;20075;-80
2023/06/22 08:15:36;;;;;;;14.27;10.30;;;22.30;99.90;;;;;;4967102;28;20055;-78
2023/06/22 08:18:02;;;;;;;14.50;11.18;;;22.10;99.90;;;;;;4949356;29;20482;-80
2023/06/22 08:20:27;;;;;;;12.90;9.63;;;22.30;99.90;;;;;;5014200;28;20483;-79
2023/06/22 08:22:55;;;;;;;13.18;10.75;;;22.60;99.90;;;;;;5049128;28;20052;-79
2023/06/22 08:25:21;;;;;;;12.63;9.90;;;22.50;99.90;;;;;;5030088;28;20089;-77
2023/06/22 08:27:48;;;;;;;14.32;11.43;;;22.70;99.90;;;;;;4996829;28;20036;-79
2023/06/22 08:30:14;;;;;;;14.88;11.20;;;22.70;99.90;;;;;;5000620;28;20127;-78
2023/06/22 08:32:40;;;;;;;14.32;11.07;;;22.70;99.90;;;;;;5041522;28;20056;-77
2023/06/22 08:35:09;;;;;;;13.52;11.63;;;22.70;99.90;;;;;;4949525;28;20055;-77
2023/06/22 08:37:35;;;;;;;16.98;12.35;;;23.00;99.90;;;;;;5007254;28;20049;-79
2023/06/22 08:40:09;;;;;;;16.40;12.95;;;23.10;99.90;;;;;;5009273;28;20050;-77
2023/06/22 08:42:41;;;;;;;13.43;11.88;;;22.80;99.90;;;;;;4983086;28;20079;-74
2023/06/22 08:45:07;;;;;;;12.18;10.35;;;23.20;99.90;;;;;;4941498;28;20456;-78
2023/06/22 08:47:33;;;;;;;12.27;11.15;;;23.00;99.90;;;;;;5010467;28;20058;-77
2023/06/22 08:49:59;;;;;;;11.75;9.18;;;23.30;99.90;;;;;;5028035;28;20502;-77
2023/06/22 08:52:25;;;;;;;18.80;11.75;;;23.40;99.90;;;;;;5022826;28;20102;-76
2023/06/22 08:54:51;;;;;;;15.77;12.25;;;23.20;99.90;;;;;;5046930;28;20084;-78
2023/06/22 08:57:17;;;;;;;14.55;10.30;;;23.10;99.90;;;;;;4995136;28;20055;-81
2023/06/22 08:59:43;;;;;;;13.25;10.85;;;23.20;99.90;;;;;;4984138;28;20041;-82
2023/06/22 09:02:09;;;;;;;14.45;10.02;;;23.20;99.90;;;;;;4999518;28;20049;-80
2023/06/22 09:04:36;;;;;;;11.60;9.60;;;23.60;99.90;;;;;;5018474;28;20377;-81
2023/06/22 09:07:02;;;;;;;12.02;10.90;;;23.60;99.90;;;;;;4997881;28;20053;-84
2023/06/22 09:09:28;;;;;;;13.75;9.90;;;23.50;99.90;;;;;;4988364;28;20091;-82
2023/06/22 09:11:54;;;;;;;13.93;10.95;;;23.70;99.90;;;;;;5037059;28;20484;-79
2023/06/22 09:14:19;;;;;;;11.52;10.30;;;23.40;99.90;;;;;;4998868;28;20474;-84
2023/06/22 09:16:45;;;;;;;14.57;10.98;;;23.10;99.90;;;;;;4997562;28;20049;-82
2023/06/22 09:19:12;;;;;;;11.18;9.80;;;23.40;99.90;;;;;;5003919;28;20046;-83
2023/06/22 09:21:37;;;;;;;11.05;8.88;;;23.60;99.90;;;;;;5035375;28;20049;-81
2023/06/22 09:24:03;;;;;;;12.80;9.77;;;23.60;99.90;;;;;;4950291;28;20055;-82
2023/06/22 09:26:29;;;;;;;12.93;10.80;;;23.60;99.90;;;;;;4973202;28;20043;-81
2023/06/22 09:28:55;;;;;;;12.40;10.63;;;23.90;99.90;;;;;;4953016;29;20435;-81
2023/06/22 09:31:27;;;;;;;13.98;10.63;;;24.00;99.90;;;;;;4937054;28;20083;-82
2023/06/22 09:33:54;;;;;;;10.65;8.73;;;24.20;99.90;;;;;;4954078;29;20089;-80
2023/06/22 09:36:20;;;;;;;12.60;10.48;;;24.10;99.90;;;;;;4986667;28;20054;-82
2023/06/22 09:38:47;;;;;;;10.07;8.90;;;24.00;99.90;;;;;;4954268;28;20095;-81
2023/06/22 09:41:13;;;;;;;11.55;10.27;;;24.20;99.90;;;;;;5024564;28;20055;-83
2023/06/22 09:43:38;;;;;;;15.18;10.25;;;23.80;99.90;;;;;;4963631;28;20043;-79
2023/06/22 09:46:04;;;;;;;12.27;9.27;;;23.90;99.90;;;;;;4954763;28;20043;-80
2023/06/22 09:48:30;;;;;;;9.63;8.43;;;24.00;99.90;;;;;;4952170;29;20047;-80
2023/06/22 09:50:56;;;;;;;9.52;8.50;;;24.50;99.90;;;;;;4988569;28;20051;-82
2023/06/22 09:53:22;;;;;;;11.63;10.05;;;24.40;99.90;;;;;;4999251;28;20096;-75
2023/06/22 09:55:47;;;;;;;9.70;8.55;;;24.40;99.90;;;;;;4970341;28;20044;-76
2023/06/22 09:58:13;;;;;;;12.23;8.40;;;24.50;99.90;;;;;;5019772;28;20176;-74
2023/06/22 10:00:41;;;;;;;11.77;9.90;;;24.30;99.90;;;;;;4973174;28;20081;-76
2023/06/22 10:03:07;;;;;;;12.48;9.18;;;23.90;99.90;;;;;;4991459;28;20401;-73
2023/06/22 10:05:33;;;;;;;10.40;8.65;;;23.90;99.90;;;;;;4950218;28;20059;-76
2023/06/22 10:07:58;;;;;;;11.18;9.40;;;24.50;99.90;;;;;;5011299;28;20398;-76
2023/06/22 10:10:24;;;;;;;10.95;8.55;;;24.30;99.90;;;;;;5031770;28;20037;-77
2023/06/22 10:12:58;;;;;;;8.57;7.78;;;24.60;99.90;;;;;;4967409;28;20042;-76
2023/06/22 10:15:24;;;;;;;10.38;7.68;;;24.80;99.90;;;;;;4948900;28;20047;-76
2023/06/22 10:17:49;;;;;;;11.65;8.40;;;24.80;99.90;;;;;;4948790;28;20474;-74
2023/06/22 10:20:17;;;;;;;9.50;7.40;;;24.80;99.90;;;;;;4933675;28;20064;-75
2023/06/22 10:22:44;;;;;;;9.45;7.82;;;25.20;99.90;;;;;;4970799;28;20737;-76
2023/06/22 10:25:12;;;;;;;8.32;7.53;;;24.90;99.90;;;;;;4995843;28;20542;-76
2023/06/22 10:27:41;;;;;;;10.13;8.20;;;24.90;99.90;;;;;;5047780;28;20048;-76
2023/06/22 10:30:12;;;;;;;14.27;9.60;;;24.80;99.90;;;;;;4968347;28;20043;-76
2023/06/22 10:32:39;;;;;;;11.38;8.32;;;24.40;99.90;;;;;;4958358;28;20089;-78
2023/06/22 10:35:05;;;;;;;9.15;7.38;;;24.30;99.90;;;;;;4953098;28;20048;-78
2023/06/22 10:37:31;;;;;;;15.57;8.48;;;24.50;99.90;;;;;;5021881;28;20077;-77
2023/06/22 10:39:57;;;;;;;6.85;6.15;;;24.20;99.90;;;;;;5050972;28;20080;-79
2023/06/22 10:42:23;;;;;;;10.63;6.72;;;24.80;99.90;;;;;;4960125;28;20055;-77
2023/06/22 10:44:48;;;;;;;9.07;7.22;;;24.60;99.90;;;;;;4953427;28;20141;-76
2023/06/22 10:47:14;;;;;;;12.02;7.07;;;24.50;99.90;;;;;;4962365;28;20055;-80
2023/06/22 10:49:40;;;;;;;10.40;6.43;;;24.30;99.90;;;;;;4936536;28;20046;-76
2023/06/22 10:52:09;;;;;;;6.78;5.18;;;24.40;99.90;;;;;;5033587;28;20049;-80
2023/06/22 10:54:36;;;;;;;7.40;5.88;;;24.50;99.90;;;;;;5055486;28;20120;-78
2023/06/22 10:57:02;;;;;;;7.55;6.85;;;24.80;99.90;;;;;;5051329;28;20132;-79
2023/06/22 10:59:29;;;;;;;9.43;8.07;;;24.30;99.90;;;;;;4973822;28;20043;-76
2023/06/22 11:01:58;;;;;;;8.25;7.43;;;24.70;99.90;;;;;;5022184;28;20049;-76
2023/06/22 11:04:25;;;;;;;10.05;7.13;;;25.10;99.90;;;;;;4952401;29;20057;-76
2023/06/22 11:06:51;;;;;;;8.40;5.88;;;24.90;99.90;;;;;;4996404;28;20595;-75
2023/06/22 11:09:20;;;;;;;7.45;5.57;;;24.80;99.90;;;;;;4987967;28;20047;-74
2023/06/22 11:11:50;;;;;;;7.93;6.03;;;25.00;99.90;;;;;;4950772;28;20512;-75
2023/06/22 11:14:16;;;;;;;8.82;6.60;;;25.30;99.90;;;;;;4942309;28;20059;-76
2023/06/22 11:16:42;;;;;;;8.60;7.43;;;25.10;99.90;;;;;;4979679;28;20052;-76
2023/06/22 11:19:08;;;;;;;8.30;6.90;;;24.80;99.90;;;;;;4995291;28;20055;-78
2023/06/22 11:21:34;;;;;;;8.38;6.00;;;25.00;99.90;;;;;;4971050;28;20123;-78
2023/06/22 11:24:00;;;;;;;9.40;7.05;;;24.90;99.90;;;;;;4981904;28;20125;-73
2023/06/22 11:26:29;;;;;;;7.95;5.68;;;24.70;99.90;;;;;;5001262;28;20397;-75
2023/06/22 11:28:54;;;;;;;10.82;6.45;;;24.90;99.90;;;;;;4994674;28;20043;-74
2023/06/22 11:31:20;;;;;;;8.57;6.90;;;25.30;99.90;;;;;;4944990;28;20719;-74
2023/06/22 11:33:47;;;;;;;9.32;6.45;;;25.20;99.90;;;;;;5052382;28;20041;-75
2023/06/22 11:36:13;;;;;;;8.60;7.80;;;25.20;99.90;;;;;;4967122;28;20382;-75
2023/06/22 11:38:39;;;;;;;10.80;6.95;;;24.80;99.90;;;;;;4980260;28;20057;-75
2023/06/22 11:41:09;;;;;;;9.13;7.38;;;24.80;99.90;;;;;;4934839;28;20043;-75
2023/06/22 11:43:35;;;;;;;10.18;8.15;;;24.50;99.90;;;;;;5028780;28;20091;-74
2023/06/22 11:46:03;;;;;;;25.42;7.75;;;24.70;99.90;;;;;;5052308;28;20667;-75
2023/06/22 11:48:28;;;;;;;8.07;6.50;;;24.50;99.90;;;;;;4970032;28;20429;-75
2023/06/22 11:50:55;;;;;;;6.85;5.75;;;24.50;99.90;;;;;;5032894;28;20037;-75
2023/06/22 11:53:25;;;;;;;7.00;5.78;;;24.40;99.90;;;;;;5042197;28;20097;-75
2023/06/22 11:55:52;;;;;;;9.95;6.13;;;24.50;99.90;;;;;;4966857;28;20078;-75
2023/06/22 11:58:18;;;;;;;7.20;6.28;;;24.40;99.90;;;;;;4954067;28;20420;-75
2023/06/22 12:00:45;;;;;;;8.32;7.45;;;24.50;99.90;;;;;;4989456;28;20169;-74
2023/06/22 12:03:11;;;;;;;9.63;6.55;;;24.50;99.90;;;;;;4977865;28;20058;-74
2023/06/22 12:05:37;;;;;;;10.13;7.60;;;24.40;99.90;;;;;;4950949;29;20418;-74
2023/06/22 12:08:04;;;;;;;9.90;6.85;;;24.80;99.90;;;;;;5002429;28;20428;-73
2023/06/22 12:10:30;;;;;;;9.10;7.15;;;24.80;99.90;;;;;;5031992;28;20421;-75
2023/06/22 12:12:57;;;;;;;9.85;6.82;;;24.70;99.90;;;;;;4993743;28;20438;-75
2023/06/22 12:15:23;;;;;;;9.65;7.07;;;24.70;99.90;;;;;;4924908;29;20446;-75
2023/06/22 12:17:49;;;;;;;9.73;7.93;;;24.70;99.90;;;;;;5000237;28;20438;-75
2023/06/22 12:20:15;;;;;;;10.25;7.97;;;24.90;99.90;;;;;;4950741;29;20406;-76
2023/06/22 12:22:41;;;;;;;8.33;7.53;;;24.80;99.90;;;;;;5008625;28;20436;-78
2023/06/22 12:25:08;;;;;;;8.85;8.05;;;24.60;99.90;;;;;;4961877;28;20442;-77
2023/06/22 12:27:35;;;;;;;9.10;7.80;;;24.50;99.90;;;;;;4956783;28;20421;-77
2023/06/22 12:30:00;;;;;;;11.40;8.52;;;24.70;99.90;;;;;;5051740;28;20405;-78